Aviacion

804 palabras 4 páginas
SLAG |--- | |
|SLAP |--- |

|SLAS |--- |

|SLBJ |--- |

|SLBU |--- |

|SLCA |--- |

|SLCB |TAF SLCB 311030Z 3112/0112 00000KT 5000 FU FEW030 TX31/3119Z TN10/0111Z FM311300
…ver más…
|

|SLOR |--- |

|SLPO |--- |

|SLPS |TAF SLPS 311020Z 3112/0112 09008KT 9999 SKC TX38/3119Z TN25/0110Z BECMG 3123/0101 00000KT= |

|SLRA

Documentos relacionados

  • Aviacion
    3429 palabras | 14 páginas
  • Tipos De Aviacion
    2264 palabras | 10 páginas
  • Mexicana de aviacion
    4179 palabras | 17 páginas
  • La Aviacion Monografia
    4953 palabras | 20 páginas
  • Carrera De Aviación
    799 palabras | 4 páginas
  • ferreteria de aviacion
    2289 palabras | 10 páginas
  • Hispania En Aviación Civil
    1026 palabras | 5 páginas
  • Calculos De Aviacion
    958 palabras | 4 páginas
  • Herramientas de aviacion
    4135 palabras | 17 páginas
  • Factores Humanos en la Aviacion
    4288 palabras | 18 páginas